createdAt,value
2016-06-17T00:00:47.885Z,24.45
2016-06-17T00:01:47.748Z,24.48
2016-06-17T00:02:47.908Z,24.48
2016-06-17T00:03:47.739Z,24.36
2016-06-17T00:04:47.899Z,24.39
2016-06-17T00:05:47.919Z,24.4
2016-06-17T00:06:47.922Z,24.37
2016-06-17T00:07:47.940Z,24.46
2016-06-17T00:08:47.929Z,24.37
2016-06-17T00:09:47.947Z,24.44
2016-06-17T00:10:47.795Z,24.49
2016-06-17T00:11:47.954Z,24.45
2016-06-17T00:12:47.958Z,24.39
2016-06-17T00:13:47.805Z,24.4
2016-06-17T00:14:47.964Z,24.4
2016-06-17T00:15:47.968Z,24.49
2016-06-17T00:16:47.832Z,24.37
2016-06-17T00:17:47.991Z,24.45
2016-06-17T00:18:47.994Z,24.42
2016-06-17T00:19:48.013Z,24.46
2016-06-17T00:20:48.016Z,24.46
2016-06-17T00:21:47.864Z,24.52
2016-06-17T00:22:48.023Z,24.37
2016-06-17T00:23:48.027Z,24.44
2016-06-17T00:24:48.046Z,24.4
2016-06-17T00:25:48.034Z,24.46
2016-06-17T00:26:47.897Z,24.37
2016-06-17T00:27:48.057Z,24.39
2016-06-17T00:28:48.076Z,24.45
2016-06-17T00:29:48.079Z,24.44
2016-06-17T00:30:48.098Z,24.46
2016-06-17T00:31:47.929Z,24.45
2016-06-17T00:32:48.105Z,24.45
2016-06-17T00:33:48.093Z,24.44
2016-06-17T00:34:48.112Z,24.45
2016-06-17T00:35:48.115Z,24.45
2016-06-17T00:36:48.119Z,24.44
2016-06-17T00:37:48.138Z,24.49
2016-06-17T00:38:48.142Z,24.42
2016-06-17T00:39:48.145Z,24.44
2016-06-17T00:40:48.148Z,24.42
2016-06-17T00:41:48.152Z,24.37
2016-06-17T00:42:48.172Z,24.44
2016-06-17T00:43:48.159Z,24.44
2016-06-17T00:44:48.193Z,24.42
2016-06-17T00:45:48.024Z,24.42
2016-06-17T00:46:48.044Z,24.42
2016-06-17T00:47:48.204Z,24.45
2016-06-17T00:48:48.051Z,24.44
2016-06-17T00:49:48.054Z,24.45
2016-06-17T00:50:48.229Z,24.42
2016-06-17T00:51:48.232Z,24.4
2016-06-17T00:52:48.219Z,24.39
2016-06-17T00:53:48.238Z,24.39
2016-06-17T00:54:48.241Z,24.42
2016-06-17T00:55:48.244Z,24.44
2016-06-17T00:56:48.106Z,24.45
2016-06-17T00:57:48.110Z,24.37
2016-06-17T00:58:48.269Z,24.45
2016-06-17T00:59:48.273Z,24.3
2016-06-17T01:00:48.151Z,24.4
2016-06-17T01:01:48.295Z,24.37
2016-06-17T01:02:48.299Z,24.46
2016-06-17T01:03:48.146Z,24.44
2016-06-17T01:04:48.164Z,24.37
2016-06-17T01:05:48.325Z,24.39
2016-06-17T01:06:48.329Z,24.44
2016-06-17T01:07:48.019Z,24.36
2016-06-17T01:08:48.351Z,24.42
2016-06-17T01:09:48.339Z,24.44
2016-06-17T01:10:48.342Z,24.37
2016-06-17T01:11:48.361Z,24.42
2016-06-17T01:12:48.364Z,24.36
2016-06-17T01:13:48.383Z,24.44
2016-06-17T01:14:48.387Z,24.42
2016-06-17T01:15:48.407Z,24.37
2016-06-17T01:16:48.285Z,24.42
2016-06-17T01:17:48.397Z,24.37
2016-06-17T01:18:48.401Z,24.39
2016-06-17T01:19:48.263Z,24.34
2016-06-17T01:20:48.424Z,24.4
2016-06-17T01:21:48.443Z,24.33
2016-06-17T01:22:48.289Z,24.42
2016-06-17T01:23:48.450Z,24.42
2016-06-17T01:24:48.452Z,24.36
2016-06-17T01:25:48.300Z,24.4
2016-06-17T01:26:48.304Z,24.37
2016-06-17T01:27:48.463Z,24.4
2016-06-17T01:28:48.482Z,24.36
2016-06-17T01:29:48.486Z,24.4
2016-06-17T01:30:48.489Z,24.36
2016-06-17T01:31:48.337Z,24.36
2016-06-17T01:32:48.497Z,24.4
2016-06-17T01:33:48.499Z,24.33
2016-06-17T01:34:48.362Z,24.4
2016-06-17T01:35:48.522Z,24.39
2016-06-17T01:36:48.526Z,24.33
2016-06-17T01:37:48.529Z,24.33
2016-06-17T01:38:48.549Z,24.39
2016-06-17T01:39:48.395Z,24.34
2016-06-17T01:40:48.571Z,24.36
2016-06-17T01:41:48.575Z,24.36
2016-06-17T01:42:48.578Z,24.39
2016-06-17T01:43:48.566Z,24.34
2016-06-17T01:44:48.585Z,24.33
2016-06-17T01:45:48.588Z,24.33
2016-06-17T01:46:48.451Z,24.27
2016-06-17T01:47:48.611Z,24.36
2016-06-17T01:48:48.457Z,24.42
2016-06-17T01:49:48.633Z,24.32
2016-06-17T01:50:48.637Z,24.44
2016-06-17T01:51:48.624Z,24.45
2016-06-17T01:52:48.644Z,24.36
2016-06-17T01:53:48.647Z,24.37
2016-06-17T01:54:48.759Z,24.45
2016-06-17T01:55:48.670Z,24.32
2016-06-17T01:56:48.535Z,24.32
2016-06-17T01:57:48.524Z,24.39
2016-06-17T01:58:48.685Z,24.3
2016-06-17T01:59:48.533Z,24.32
2016-06-17T02:00:48.710Z,24.44
2016-06-17T02:01:48.714Z,24.4
2016-06-17T02:02:48.718Z,24.32
2016-06-17T02:03:48.722Z,24.27
2016-06-17T02:04:48.725Z,24.4
2016-06-17T02:05:48.745Z,24.39
2016-06-17T02:06:48.749Z,24.29
2016-06-17T02:07:48.753Z,24.32
2016-06-17T02:08:48.772Z,24.34
2016-06-17T02:09:48.775Z,24.39
2016-06-17T02:10:48.779Z,24.33
2016-06-17T02:11:48.768Z,24.39
2016-06-17T02:12:48.787Z,24.32
2016-06-17T02:13:48.789Z,24.3
2016-06-17T02:14:48.793Z,24.34
2016-06-17T02:15:48.796Z,24.44
2016-06-17T02:16:48.816Z,24.33
2016-06-17T02:17:48.664Z,24.39
2016-06-17T02:18:48.682Z,24.4
2016-06-17T02:19:48.685Z,24.36
2016-06-17T02:20:48.846Z,24.32
2016-06-17T02:21:48.850Z,24.34
2016-06-17T02:22:48.867Z,24.37
2016-06-17T02:23:48.871Z,24.37
2016-06-17T02:24:48.875Z,24.39
2016-06-17T02:25:48.738Z,24.37
2016-06-17T02:26:48.726Z,24.37
2016-06-17T02:27:48.886Z,24.4
2016-06-17T02:28:48.904Z,24.44
2016-06-17T02:29:48.892Z,24.39
2016-06-17T02:30:48.912Z,24.33
2016-06-17T02:31:48.915Z,24.36
2016-06-17T02:32:48.763Z,24.32
2016-06-17T02:33:48.937Z,24.34
2016-06-17T02:34:48.941Z,24.34
2016-06-17T02:35:48.945Z,24.37
2016-06-17T02:36:48.949Z,24.33
2016-06-17T02:37:48.810Z,24.32
2016-06-17T02:38:48.970Z,24.34
2016-06-17T02:39:48.959Z,24.29
2016-06-17T02:40:48.837Z,24.39
2016-06-17T02:41:48.997Z,24.4
2016-06-17T02:42:48.984Z,24.4
2016-06-17T02:43:49.003Z,24.37
2016-06-17T02:44:49.022Z,24.4
2016-06-17T02:45:49.026Z,24.3
2016-06-17T02:46:49.014Z,24.33
2016-06-17T02:47:49.017Z,24.36
2016-06-17T02:48:49.052Z,24.32
2016-06-17T02:49:49.055Z,24.32
2016-06-17T02:50:49.059Z,24.33
2016-06-17T02:51:48.906Z,24.32
2016-06-17T02:52:49.065Z,24.36
2016-06-17T02:53:49.069Z,24.33
2016-06-17T02:54:49.073Z,24.36
2016-06-17T02:55:49.076Z,24.33
2016-06-17T02:56:49.079Z,24.36
2016-06-17T02:57:49.099Z,24.33
2016-06-17T02:58:49.102Z,24.3
2016-06-17T02:59:49.106Z,24.32
2016-06-17T03:00:49.109Z,24.4
2016-06-17T03:01:49.128Z,24.27
2016-06-17T03:02:49.131Z,24.3
2016-06-17T03:03:49.151Z,24.3
2016-06-17T03:04:49.138Z,24.26
2016-06-17T03:05:49.158Z,24.32
2016-06-17T03:06:49.302Z,24.3
2016-06-17T03:07:49.164Z,24.3
2016-06-17T03:08:49.184Z,24.33
2016-06-17T03:09:49.015Z,24.32
2016-06-17T03:10:49.175Z,24.34
2016-06-17T03:11:49.194Z,24.36
2016-06-17T03:12:49.041Z,24.29
2016-06-17T03:13:49.216Z,24.3
2016-06-17T03:14:49.220Z,24.24
2016-06-17T03:15:49.208Z,24.33
2016-06-17T03:16:49.212Z,24.3
2016-06-17T03:17:49.230Z,24.3
2016-06-17T03:18:49.249Z,24.33
2016-06-17T03:19:49.253Z,24.27
2016-06-17T03:20:48.943Z,24.3
2016-06-17T03:21:49.275Z,24.32
2016-06-17T03:22:49.264Z,24.29
2016-06-17T03:23:49.282Z,24.33
2016-06-17T03:24:49.270Z,24.33
2016-06-17T03:25:49.274Z,24.33
2016-06-17T03:26:49.308Z,24.34
2016-06-17T03:27:49.312Z,24.26
2016-06-17T03:28:49.315Z,24.3
2016-06-17T03:29:49.319Z,24.3
2016-06-17T03:30:49.322Z,24.34
2016-06-17T03:31:49.169Z,24.3
2016-06-17T03:32:49.173Z,24.27
2016-06-17T03:33:49.348Z,24.29
2016-06-17T03:34:49.194Z,24.3
2016-06-17T03:35:49.356Z,24.29
2016-06-17T03:36:49.358Z,24.27
2016-06-17T03:37:49.377Z,24.29
2016-06-17T03:38:49.366Z,24.3
2016-06-17T03:39:49.385Z,24.26
2016-06-17T03:40:49.387Z,24.32
2016-06-17T03:41:49.251Z,24.33
2016-06-17T03:42:49.410Z,24.3
2016-06-17T03:43:49.414Z,24.26
2016-06-17T03:44:49.418Z,24.29
2016-06-17T03:45:49.421Z,24.3
2016-06-17T03:46:49.284Z,24.36
2016-06-17T03:47:49.303Z,24.27
2016-06-17T03:48:49.291Z,24.29
2016-06-17T03:49:49.293Z,24.32
2016-06-17T03:50:49.329Z,24.27
2016-06-17T03:51:49.458Z,24.32
2016-06-17T03:52:49.476Z,24.29
2016-06-17T03:53:49.480Z,24.36
2016-06-17T03:54:49.483Z,24.3
2016-06-17T03:55:49.486Z,24.33
2016-06-17T03:56:49.506Z,24.34
2016-06-17T03:57:49.525Z,24.3
2016-06-17T03:58:49.372Z,24.27
2016-06-17T03:59:49.516Z,24.33
2016-06-17T04:00:49.535Z,24.33
2016-06-17T04:01:49.538Z,24.33
2016-06-17T04:02:49.542Z,24.32
2016-06-17T04:03:49.545Z,24.29
2016-06-17T04:04:49.548Z,24.26
2016-06-17T04:05:49.256Z,24.27
2016-06-17T04:06:49.619Z,24.27
2016-06-17T04:07:49.575Z,24.33
2016-06-17T04:08:49.578Z,24.29
2016-06-17T04:09:49.598Z,24.29
2016-06-17T04:10:49.601Z,24.34
2016-06-17T04:11:49.605Z,24.32
2016-06-17T04:12:49.595Z,24.32
2016-06-17T04:13:49.477Z,24.39
2016-06-17T04:14:49.625Z,24.34
2016-06-17T04:15:49.632Z,24.36
2016-06-17T04:16:49.638Z,24.32
2016-06-17T04:17:49.659Z,24.33
2016-06-17T04:18:49.507Z,24.33
2016-06-17T04:19:49.668Z,24.32
2016-06-17T04:20:49.688Z,24.32
2016-06-17T04:21:49.709Z,24.27
2016-06-17T04:22:49.542Z,24.36
2016-06-17T04:23:49.701Z,24.34
2016-06-17T04:24:49.705Z,24.36
2016-06-17T04:25:49.725Z,24.36
2016-06-17T04:26:49.743Z,24.32
2016-06-17T04:27:49.732Z,24.32
2016-06-17T04:28:49.751Z,24.37
2016-06-17T04:29:49.755Z,24.36
2016-06-17T04:30:49.775Z,24.4
2016-06-17T04:31:49.762Z,24.36
2016-06-17T04:32:49.767Z,24.39
2016-06-17T04:33:49.769Z,24.42
2016-06-17T04:34:49.789Z,24.44
2016-06-17T04:35:49.793Z,24.42
2016-06-17T04:36:49.797Z,24.39
2016-06-17T04:37:49.643Z,24.3
2016-06-17T04:38:49.818Z,24.42
2016-06-17T04:39:49.821Z,24.4
2016-06-17T04:40:49.669Z,24.32
2016-06-17T04:41:49.829Z,24.37
2016-06-17T04:42:49.847Z,24.3
2016-06-17T04:43:49.851Z,24.44
2016-06-17T04:44:49.870Z,24.33
2016-06-17T04:45:49.859Z,24.42
2016-06-17T04:46:49.862Z,24.39
2016-06-17T04:47:49.882Z,24.44
2016-06-17T04:48:49.884Z,24.37
2016-06-17T04:49:49.903Z,24.44
2016-06-17T04:50:49.891Z,24.4
2016-06-17T04:51:49.895Z,24.44
2016-06-17T04:52:49.914Z,24.37
2016-06-17T04:53:49.917Z,24.45
2016-06-17T04:54:49.920Z,24.44
2016-06-17T04:55:49.924Z,24.39
2016-06-17T04:56:49.788Z,24.48
2016-06-17T04:57:49.947Z,24.4
2016-06-17T04:58:49.638Z,24.48
2016-06-17T04:59:49.953Z,24.44
2016-06-17T05:00:49.973Z,24.46
2016-06-17T05:01:49.977Z,24.44
2016-06-17T05:02:49.995Z,24.48
2016-06-17T05:03:49.984Z,24.48
2016-06-17T05:04:50.002Z,24.39
2016-06-17T05:05:50.005Z,24.42
2016-06-17T05:06:50.056Z,24.45
2016-06-17T05:07:49.857Z,24.37
2016-06-17T05:08:49.876Z,24.52
2016-06-17T05:09:49.880Z,24.46
2016-06-17T05:10:50.038Z,24.48
2016-06-17T05:11:49.745Z,24.45
2016-06-17T05:12:50.046Z,24.42
2016-06-17T05:13:49.893Z,24.42
2016-06-17T05:14:50.068Z,24.4
2016-06-17T05:15:49.915Z,24.48
2016-06-17T05:16:49.762Z,24.51
2016-06-17T05:17:50.094Z,24.51
2016-06-17T05:18:50.097Z,24.42
2016-06-17T05:19:50.101Z,24.48
2016-06-17T05:20:49.949Z,24.52
2016-06-17T05:21:49.966Z,24.46
2016-06-17T05:22:50.111Z,24.4
2016-06-17T05:23:50.114Z,24.48
2016-06-17T05:24:49.977Z,24.42
2016-06-17T05:25:50.153Z,24.48
2016-06-17T05:26:50.172Z,24.52
2016-06-17T05:27:50.160Z,24.44
2016-06-17T05:28:50.007Z,24.37
2016-06-17T05:29:50.167Z,24.44
2016-06-17T05:30:50.170Z,24.42
2016-06-17T05:31:50.190Z,24.37
2016-06-17T05:32:50.193Z,24.44
2016-06-17T05:33:50.196Z,24.44
2016-06-17T05:34:50.184Z,24.45
2016-06-17T05:35:50.047Z,24.37
2016-06-17T05:36:50.207Z,24.48
2016-06-17T05:37:50.226Z,24.39
2016-06-17T05:38:50.073Z,24.42
2016-06-17T05:39:50.233Z,24.45
2016-06-17T05:40:50.298Z,24.45
2016-06-17T05:41:50.240Z,24.4
2016-06-17T05:42:50.258Z,24.46
2016-06-17T05:43:50.122Z,24.44
2016-06-17T05:44:50.265Z,24.46
2016-06-17T05:45:50.285Z,24.44
2016-06-17T05:46:50.288Z,24.4
2016-06-17T05:47:50.292Z,24.48
2016-06-17T05:48:50.295Z,24.46
2016-06-17T05:49:50.143Z,24.45
2016-06-17T05:50:50.349Z,24.37
2016-06-17T05:51:50.164Z,24.4
2016-06-17T05:52:50.324Z,24.51
2016-06-17T05:53:50.327Z,24.45
2016-06-17T05:54:50.191Z,24.51
2016-06-17T05:55:50.350Z,24.39
2016-06-17T05:56:50.354Z,24.49
2016-06-17T05:57:50.201Z,24.48
2016-06-17T05:58:50.360Z,24.51
2016-06-17T05:59:50.381Z,24.51
2016-06-17T06:00:50.476Z,24.55
2016-06-17T06:01:50.387Z,24.48
2016-06-17T06:02:50.406Z,24.52
2016-06-17T06:03:50.394Z,24.48
2016-06-17T06:04:50.100Z,24.49
2016-06-17T06:05:50.415Z,24.42
2016-06-17T06:06:50.576Z,24.45
2016-06-17T06:07:50.423Z,24.46
2016-06-17T06:08:50.459Z,24.45
2016-06-17T06:09:50.445Z,24.48
2016-06-17T06:10:50.449Z,24.45
2016-06-17T06:11:50.452Z,24.54
2016-06-17T06:12:50.472Z,24.51
2016-06-17T06:13:50.460Z,24.61
2016-06-17T06:14:50.479Z,24.59
2016-06-17T06:15:50.763Z,24.58
2016-06-17T06:16:50.486Z,24.59
2016-06-17T06:17:50.364Z,24.49
2016-06-17T06:18:50.914Z,24.54
2016-06-17T06:19:50.528Z,24.59
2016-06-17T06:20:51.030Z,24.63
2016-06-17T06:21:51.129Z,24.61
2016-06-17T06:22:51.021Z,24.64
2016-06-17T06:23:51.166Z,24.55
2016-06-17T06:24:51.107Z,24.55
2016-06-17T06:25:51.204Z,24.61
2016-06-17T06:26:50.396Z,24.58
2016-06-17T06:27:50.555Z,24.54
2016-06-17T06:28:50.590Z,24.63
2016-06-17T06:29:50.692Z,24.55
2016-06-17T06:30:50.607Z,24.69
2016-06-17T06:31:50.615Z,24.67
2016-06-17T06:32:50.655Z,24.54
2016-06-17T06:33:50.632Z,24.55
2016-06-17T06:34:51.559Z,24.61
2016-06-17T06:35:50.501Z,24.66
2016-06-17T06:36:50.647Z,24.59
2016-06-17T06:37:50.667Z,24.66
2016-06-17T06:38:50.673Z,24.64
2016-06-17T06:39:50.692Z,24.52
2016-06-17T06:40:50.682Z,24.61
2016-06-17T06:41:50.700Z,24.58
2016-06-17T06:42:50.721Z,24.58
2016-06-17T06:43:50.944Z,24.56
2016-06-17T06:44:50.728Z,24.61
2016-06-17T06:45:50.732Z,24.59
2016-06-17T06:46:50.735Z,24.63
2016-06-17T06:47:50.598Z,24.51
2016-06-17T06:48:50.601Z,24.58
2016-06-17T06:49:51.011Z,24.54
2016-06-17T06:50:50.765Z,24.49
2016-06-17T06:51:50.627Z,24.49
2016-06-17T06:52:50.787Z,24.69
2016-06-17T06:53:50.494Z,24.54
2016-06-17T06:54:50.794Z,24.64
2016-06-17T06:55:50.954Z,24.61
2016-06-17T06:56:50.831Z,24.51
2016-06-17T06:57:50.804Z,24.59
2016-06-17T06:58:50.824Z,24.54
2016-06-17T06:59:50.811Z,24.52
2016-06-17T07:00:50.831Z,24.55
2016-06-17T07:01:50.849Z,24.63
2016-06-17T07:02:50.852Z,24.63
2016-06-17T07:03:50.855Z,24.56
2016-06-17T07:04:50.859Z,24.56
2016-06-17T07:05:50.863Z,24.52
2016-06-17T07:06:50.883Z,24.55
2016-06-17T07:07:52.073Z,24.67
2016-06-17T07:08:50.889Z,24.61
2016-06-17T07:09:50.736Z,24.59
2016-06-17T07:10:51.255Z,24.55
2016-06-17T07:11:50.916Z,24.58
2016-06-17T07:12:50.919Z,24.52
2016-06-17T07:13:50.923Z,24.54
2016-06-17T07:14:50.941Z,24.59
2016-06-17T07:15:50.944Z,24.58
2016-06-17T07:16:50.933Z,24.55
2016-06-17T07:17:51.187Z,24.61
2016-06-17T07:18:50.954Z,24.55
2016-06-17T07:19:50.959Z,24.59
2016-06-17T07:20:50.961Z,24.55
2016-06-17T07:21:50.809Z,24.56
2016-06-17T07:22:50.985Z,24.51
2016-06-17T07:23:50.989Z,24.64
2016-06-17T07:24:51.008Z,24.49
2016-06-17T07:25:51.011Z,24.54
2016-06-17T07:26:51.014Z,24.54
2016-06-17T07:27:51.018Z,24.54
2016-06-17T07:28:51.053Z,24.59
2016-06-17T07:29:51.039Z,24.56
2016-06-17T07:30:50.700Z,24.59
2016-06-17T07:31:51.077Z,24.59
2016-06-17T07:32:51.050Z,24.56
2016-06-17T07:33:50.914Z,24.69
2016-06-17T07:34:50.918Z,24.66
2016-06-17T07:35:51.717Z,24.74
2016-06-17T07:36:50.595Z,24.74
2016-06-17T07:37:51.098Z,24.75
2016-06-17T07:38:51.118Z,24.77
2016-06-17T07:39:51.105Z,24.71
2016-06-17T07:40:51.109Z,24.71
2016-06-17T07:41:51.723Z,24.71
2016-06-17T07:42:50.975Z,24.71
2016-06-17T07:43:51.198Z,24.75
2016-06-17T07:44:51.155Z,24.75
2016-06-17T07:45:51.001Z,24.71
2016-06-17T07:46:50.990Z,24.71
2016-06-17T07:47:51.149Z,24.67
2016-06-17T07:48:51.200Z,24.83
2016-06-17T07:49:51.187Z,24.71
2016-06-17T07:50:51.034Z,24.69
2016-06-17T07:51:51.194Z,24.74
2016-06-17T07:52:51.198Z,24.75
2016-06-17T07:53:51.311Z,24.74
2016-06-17T07:54:51.345Z,24.8
2016-06-17T07:55:51.349Z,24.71
2016-06-17T07:56:51.211Z,24.7
2016-06-17T07:57:51.356Z,24.74
2016-06-17T07:58:51.359Z,24.71
2016-06-17T07:59:51.254Z,24.82
2016-06-17T08:04:54.021Z,24.71
2016-06-17T08:05:47.869Z,24.74
2016-06-17T08:06:47.903Z,24.71
2016-06-17T08:07:47.937Z,24.71
2016-06-17T08:08:47.895Z,24.69
2016-06-17T08:09:47.913Z,24.75
2016-06-17T08:10:47.902Z,24.71
2016-06-17T08:11:47.921Z,24.66
2016-06-17T08:12:47.939Z,24.7
2016-06-17T08:13:47.958Z,24.71
2016-06-17T08:14:48.789Z,24.7
2016-06-17T08:15:47.934Z,24.77
2016-06-17T08:16:47.953Z,24.69
2016-06-17T08:17:47.957Z,24.69
2016-06-17T08:18:47.961Z,24.71
2016-06-17T08:19:47.964Z,24.67
2016-06-17T08:20:47.982Z,24.74
2016-06-17T08:21:47.971Z,24.71
2016-06-17T08:22:47.989Z,24.77
2016-06-17T08:23:48.009Z,24.75
2016-06-17T08:24:48.028Z,24.77
2016-06-17T08:25:48.000Z,24.63
2016-06-17T08:26:48.644Z,24.64
2016-06-17T08:27:48.648Z,24.69
2016-06-17T08:28:48.057Z,24.71
2016-06-17T08:29:48.030Z,24.77
2016-06-17T08:30:48.049Z,24.67
2016-06-17T08:31:48.053Z,24.63
2016-06-17T08:32:48.307Z,24.75
2016-06-17T08:33:48.075Z,24.67
2016-06-17T08:34:48.079Z,24.66
2016-06-17T08:35:48.066Z,24.77
2016-06-17T08:36:48.960Z,24.63
2016-06-17T08:37:48.089Z,24.69
2016-06-17T08:38:48.108Z,24.64
2016-06-17T08:39:48.768Z,24.7
2016-06-17T08:40:49.162Z,24.66
2016-06-17T08:41:48.118Z,24.69
2016-06-17T08:42:48.122Z,24.71
2016-06-17T08:43:48.140Z,24.69
2016-06-17T08:44:30.609Z,24.63
2016-06-17T08:45:29.223Z,24.59
2016-06-17T08:46:29.491Z,24.61
2016-06-17T08:47:29.246Z,24.63
2016-06-17T08:48:29.249Z,24.61
2016-06-17T08:49:29.550Z,24.61
2016-06-17T08:50:30.256Z,24.61
2016-06-17T08:51:29.901Z,24.64
2016-06-17T08:52:29.280Z,24.64
2016-06-17T08:53:29.299Z,24.66
2016-06-17T08:54:29.286Z,24.59
2016-06-17T08:55:29.305Z,24.63
2016-06-17T08:56:29.559Z,24.59
2016-06-17T08:57:29.312Z,24.67
2016-06-17T08:58:29.333Z,24.58
2016-06-17T08:59:29.351Z,24.58
2016-06-17T09:00:29.339Z,24.66
2016-06-17T09:01:29.342Z,24.64
2016-06-17T09:02:29.393Z,24.58
2016-06-17T09:03:29.381Z,24.58
2016-06-17T09:04:29.369Z,24.55
2016-06-17T09:05:29.826Z,24.63
2016-06-17T09:06:29.376Z,24.51
2016-06-17T09:07:29.379Z,24.51
2016-06-17T09:08:29.398Z,24.64
2016-06-17T09:16:29.407Z,24.54
2016-06-17T09:17:30.271Z,24.56
2016-06-17T09:24:27.519Z,24.64
2016-06-17T09:25:26.553Z,24.64
2016-06-17T09:26:26.557Z,24.48
2016-06-17T09:27:26.561Z,24.61
2016-06-17T09:28:26.596Z,24.64
2016-06-17T09:29:26.584Z,24.63
2016-06-17T09:30:26.587Z,24.58
2016-06-17T09:31:26.590Z,24.63
2016-06-17T09:32:26.610Z,24.58
2016-06-17T09:33:27.239Z,24.63
2016-06-17T09:34:27.242Z,24.64
2016-06-17T09:35:26.621Z,24.59
2016-06-17T09:36:26.624Z,24.63
2016-06-17T09:37:26.627Z,24.59
2016-06-17T09:38:26.646Z,24.61
2016-06-17T09:39:26.666Z,24.63
2016-06-17T09:40:26.653Z,24.59
2016-06-17T09:41:26.924Z,24.56
